Aérodrome :
LOGIN :

S'inscrire | Disclaimer

   EN    FR    IT 

 










Légende :    VFR   VFR Marginal   IFR   IFR Intensif   IFR Très Intensif
Visi : 
Plafond : 
>= 8 km
>= 3000ft
5 à 8 km
1000 à 3000 ft
1500m à 5 km
500 à 1000 ft
800 à 1500m
200 à 500 ft
< 800m
< 200 ft
Symboles :   Orages  Brouillard  Fortes neiges  Fortes précipitations  Vent > 20 kt
SIGMETs :   Divers  Orages  Givrage  Turbulence  Onde Orograph.  Cendres Volcan.







- Altitude de l'aérodrome : 129 ft
- Code IATA : ZCN


ETHC - Celle

DERNIER METAR :
  • 201520Z 08013KT 7000 BKN015 02/M01 Q1014 WHT WHT BECMG GRN

METARs EXPIRÉS :
  • 201420Z 07017G27KT 9999 BKN019 03/M01 Q1014 WHT WHT BECMG GRN
  • 201320Z 06018KT 9999 BKN019 03/M01 Q1014 WHT WHT
  • 201220Z 07017KT 9999 BKN020 03/M01 Q1014 WHT WHT

TAF TAF ETHC
Valide du 20 à 15h jusqu'au 21 à 00h UTC


201421Z 2015/2024 08018G28KT 9999 NSW BKN018
BECMG 2015/2017 08012G22KT 5000 -SNRA BKN012
TEMPO 2016/2019 08015G25KT 1500 SNRA BKN006 OVC010
BECMG 2015/2021 09012G22KT 8000 NSW BKN010
Pas de NOTAMs connus pour ce terrain.



MET'MAP, la Météo Aéronautique d'un coup d'oeil ! - Copyright ORBIFLY Décembre 2007 - Disclaimer

ORBIFLY MET'MAP TEAM :

Programmation & Développement : Alexandra Zaïnal
Conception & Développement : Baudouin d'Aumeries
Co-Programmation & Développement : Marc-Olivier Méhu
Soutien technique & logistique : Manuel Goepfert

Contact : metmap@orbifly.com




SOURCES & CREDITS :

   NOAA